Strona główna
METAR-TAF:

METAR-TAF

Lotnisko :

Port lotniczy Gobernador Horacio Guzman

San Salvador de Jujuy, Argentyna

Szerokość geograficzna: 24-23S, Długość geograficzna: 065-05W, wysokość: 921 m

Aktualna obserwacja pogody

Raport powstał 1 godzina i 16 minut temu, godzina 06:00 UTC
Wiatr 8 kt od zachodnio-północny zachód
Temperatura 24°C
Wilgotność 74%
Ciśnienie 1013 hPa
Widzialność 10 km lub więcej
Brak chmur poniżej 1500 m i brak chmur cumulonimbus

METAR: SASJ 240600Z 29008KT CAVOK 24/19 Q1013

czas: 04:16 (07:16 UTC)

Prognoza

Raport powstał 2 godziny i 16 minut temu, godzina 05:00 UTC
Prognoza ważna od 24 godzina 06 UTC do 25 godzina 06 UTC
Wiatr 5 kt od zachodnio-północny zachód
Widzialność 10 km lub więcej
Rozproszone chmury na wysokości 3000 ft
Stopniowe zmiany
od 24 godzina 15 UTC do 24 godzina 17 UTC
Wiatr 15 kt od wschodnio-północny wschód
Widzialność 10 km lub więcej
Brak chmur poniżej 1500 m i brak chmur cumulonimbus

TAF: SASJ 240500Z 2406/2506 30005KT 9999 SCT030 TX33/2419Z TN21/2410Z BECMG 2415/2417 07015KT CAVOK

Obserwacja i prognoza pogody dla ponad 4000 lotnisk (raport METAR i TAF).

Dostępne stacje oznaczono żółtymi i czerwonymi punktami na mapie.

Najedź kursorem aby zobaczyć nazwę stacji.

Kliknij aby zobaczyć obserwacje i prognozy pogody.

Aby zmienić mapę: kliknij na zielony przycisk z czarnym krzyżykiem, aby powiększyć; na zielony przycisk z myślnikiem, aby pomniejszyć; na zielone strzałki, aby przejść do map sąsiednich.


METAR-TAF: